sensor_id;sensor_type;location;lat;lon;timestamp;temperature;humidity
4505;DHT22;2265;48.794;9.520;2022-08-21T00:42:39;16.40;98.00
4505;DHT22;2265;48.794;9.520;2022-08-21T00:45:08;16.50;98.00
4505;DHT22;2265;48.794;9.520;2022-08-21T00:47:36;16.60;98.00
4505;DHT22;2265;48.794;9.520;2022-08-21T00:50:10;16.60;98.00
4505;DHT22;2265;48.794;9.520;2022-08-21T00:52:56;16.50;98.00
4505;DHT22;2265;48.794;9.520;2022-08-21T00:55:25;16.20;98.00
4505;DHT22;2265;48.794;9.520;2022-08-21T00:57:57;16.10;98.00
4505;DHT22;2265;48.794;9.520;2022-08-21T01:00:34;16.10;98.00
4505;DHT22;2265;48.794;9.520;2022-08-21T01:03:10;16.10;98.00
4505;DHT22;2265;48.794;9.520;2022-08-21T01:05:38;16.20;98.00
4505;DHT22;2265;48.794;9.520;2022-08-21T01:08:10;16.10;98.00
4505;DHT22;2265;48.794;9.520;2022-08-21T01:10:39;16.10;98.00
4505;DHT22;2265;48.794;9.520;2022-08-21T01:13:15;16.00;98.00
4505;DHT22;2265;48.794;9.520;2022-08-21T01:15:50;16.00;98.00
4505;DHT22;2265;48.794;9.520;2022-08-21T01:18:19;15.90;98.00
4505;DHT22;2265;48.794;9.520;2022-08-21T01:21:00;15.90;98.00
4505;DHT22;2265;48.794;9.520;2022-08-21T01:23:53;16.00;98.00
4505;DHT22;2265;48.794;9.520;2022-08-21T01:26:28;15.80;98.00
4505;DHT22;2265;48.794;9.520;2022-08-21T01:28:59;15.70;98.00
4505;DHT22;2265;48.794;9.520;2022-08-21T01:31:35;15.90;98.00
4505;DHT22;2265;48.794;9.520;2022-08-21T01:34:04;16.00;98.00
4505;DHT22;2265;48.794;9.520;2022-08-21T01:36:51;16.00;98.00
4505;DHT22;2265;48.794;9.520;2022-08-21T01:39:21;16.00;98.00
4505;DHT22;2265;48.794;9.520;2022-08-21T01:41:52;15.90;98.00
4505;DHT22;2265;48.794;9.520;2022-08-21T01:44:21;15.90;98.00
4505;DHT22;2265;48.794;9.520;2022-08-21T01:46:48;15.80;98.00
4505;DHT22;2265;48.794;9.520;2022-08-21T01:49:16;15.80;98.00
4505;DHT22;2265;48.794;9.520;2022-08-21T01:51:43;16.00;98.00
4505;DHT22;2265;48.794;9.520;2022-08-21T01:54:12;16.10;98.00
4505;DHT22;2265;48.794;9.520;2022-08-21T01:56:41;16.10;98.00
4505;DHT22;2265;48.794;9.520;2022-08-21T01:59:09;16.10;98.00
4505;DHT22;2265;48.794;9.520;2022-08-21T02:01:37;16.00;98.00
4505;DHT22;2265;48.794;9.520;2022-08-21T02:04:05;16.00;98.00
4505;DHT22;2265;48.794;9.520;2022-08-21T02:06:33;16.10;98.00
4505;DHT22;2265;48.794;9.520;2022-08-21T02:09:01;16.10;98.00
4505;DHT22;2265;48.794;9.520;2022-08-21T02:11:30;16.10;98.00
4505;DHT22;2265;48.794;9.520;2022-08-21T02:13:57;16.00;98.00
4505;DHT22;2265;48.794;9.520;2022-08-21T02:16:25;15.80;98.00
4505;DHT22;2265;48.794;9.520;2022-08-21T02:18:52;15.80;98.00
4505;DHT22;2265;48.794;9.520;2022-08-21T02:21:19;15.70;98.00
4505;DHT22;2265;48.794;9.520;2022-08-21T02:23:46;15.70;98.00
4505;DHT22;2265;48.794;9.520;2022-08-21T02:26:13;15.60;98.00
4505;DHT22;2265;48.794;9.520;2022-08-21T02:28:42;15.60;98.00
4505;DHT22;2265;48.794;9.520;2022-08-21T02:31:09;15.70;98.00
4505;DHT22;2265;48.794;9.520;2022-08-21T02:33:37;15.60;98.00
4505;DHT22;2265;48.794;9.520;2022-08-21T02:36:06;15.50;98.00
4505;DHT22;2265;48.794;9.520;2022-08-21T02:38:35;15.40;98.00
4505;DHT22;2265;48.794;9.520;2022-08-21T02:41:04;15.40;98.00
4505;DHT22;2265;48.794;9.520;2022-08-21T02:43:33;15.40;98.00
4505;DHT22;2265;48.794;9.520;2022-08-21T02:46:04;15.30;98.00
4505;DHT22;2265;48.794;9.520;2022-08-21T02:48:32;15.40;98.00
4505;DHT22;2265;48.794;9.520;2022-08-21T02:51:02;15.70;98.00
4505;DHT22;2265;48.794;9.520;2022-08-21T02:53:30;15.80;98.00
4505;DHT22;2265;48.794;9.520;2022-08-21T02:56:00;15.70;98.00
4505;DHT22;2265;48.794;9.520;2022-08-21T02:58:30;15.50;98.00
4505;DHT22;2265;48.794;9.520;2022-08-21T03:00:58;15.30;98.00
4505;DHT22;2265;48.794;9.520;2022-08-21T03:03:27;15.10;98.00
4505;DHT22;2265;48.794;9.520;2022-08-21T03:05:55;15.10;98.00
4505;DHT22;2265;48.794;9.520;2022-08-21T03:08:22;15.00;98.00
4505;DHT22;2265;48.794;9.520;2022-08-21T03:10:52;14.90;98.00
4505;DHT22;2265;48.794;9.520;2022-08-21T03:13:19;14.90;98.00
4505;DHT22;2265;48.794;9.520;2022-08-21T03:15:47;14.90;98.00
4505;DHT22;2265;48.794;9.520;2022-08-21T03:18:15;14.90;98.00
4505;DHT22;2265;48.794;9.520;2022-08-21T03:20:44;14.90;98.00
4505;DHT22;2265;48.794;9.520;2022-08-21T03:23:12;14.90;98.00
4505;DHT22;2265;48.794;9.520;2022-08-21T03:25:40;14.70;98.00
4505;DHT22;2265;48.794;9.520;2022-08-21T03:28:10;14.70;98.00
4505;DHT22;2265;48.794;9.520;2022-08-21T03:30:37;14.60;98.00
4505;DHT22;2265;48.794;9.520;2022-08-21T03:33:04;14.60;98.00
4505;DHT22;2265;48.794;9.520;2022-08-21T03:35:31;14.90;98.00
4505;DHT22;2265;48.794;9.520;2022-08-21T03:38:00;14.90;98.00
4505;DHT22;2265;48.794;9.520;2022-08-21T03:40:27;14.70;98.00
4505;DHT22;2265;48.794;9.520;2022-08-21T03:42:55;14.70;98.00
4505;DHT22;2265;48.794;9.520;2022-08-21T03:45:22;14.60;98.00
4505;DHT22;2265;48.794;9.520;2022-08-21T03:47:53;14.70;98.00
4505;DHT22;2265;48.794;9.520;2022-08-21T03:50:21;14.80;98.00
4505;DHT22;2265;48.794;9.520;2022-08-21T03:52:49;14.80;98.00
4505;DHT22;2265;48.794;9.520;2022-08-21T03:55:18;14.80;98.00
4505;DHT22;2265;48.794;9.520;2022-08-21T03:57:45;14.80;98.00
4505;DHT22;2265;48.794;9.520;2022-08-21T04:00:13;14.70;98.00
4505;DHT22;2265;48.794;9.520;2022-08-21T04:02:42;14.70;98.00
4505;DHT22;2265;48.794;9.520;2022-08-21T04:05:11;14.70;98.00
4505;DHT22;2265;48.794;9.520;2022-08-21T04:07:39;14.60;98.00
4505;DHT22;2265;48.794;9.520;2022-08-21T04:10:07;14.60;98.00
4505;DHT22;2265;48.794;9.520;2022-08-21T04:12:36;14.80;98.00
4505;DHT22;2265;48.794;9.520;2022-08-21T04:15:04;15.00;98.00
4505;DHT22;2265;48.794;9.520;2022-08-21T04:17:31;15.00;98.00
4505;DHT22;2265;48.794;9.520;2022-08-21T04:19:58;15.10;98.00
4505;DHT22;2265;48.794;9.520;2022-08-21T04:22:25;15.10;98.00
4505;DHT22;2265;48.794;9.520;2022-08-21T04:24:52;15.00;98.00
4505;DHT22;2265;48.794;9.520;2022-08-21T04:27:20;15.00;98.00
4505;DHT22;2265;48.794;9.520;2022-08-21T04:29:48;14.90;98.00
4505;DHT22;2265;48.794;9.520;2022-08-21T04:32:21;15.00;98.00
4505;DHT22;2265;48.794;9.520;2022-08-21T04:34:48;15.10;98.00
4505;DHT22;2265;48.794;9.520;2022-08-21T04:37:16;15.20;98.00
4505;DHT22;2265;48.794;9.520;2022-08-21T04:39:43;15.30;98.00
4505;DHT22;2265;48.794;9.520;2022-08-21T04:42:10;15.20;98.00
4505;DHT22;2265;48.794;9.520;2022-08-21T04:44:37;15.40;98.00
4505;DHT22;2265;48.794;9.520;2022-08-21T04:47:06;15.30;98.00
4505;DHT22;2265;48.794;9.520;2022-08-21T04:49:33;15.20;98.00
4505;DHT22;2265;48.794;9.520;2022-08-21T04:52:01;15.30;98.00
4505;DHT22;2265;48.794;9.520;2022-08-21T04:54:29;15.50;98.00
4505;DHT22;2265;48.794;9.520;2022-08-21T04:57:00;15.30;98.00
4505;DHT22;2265;48.794;9.520;2022-08-21T04:59:33;15.40;98.00
4505;DHT22;2265;48.794;9.520;2022-08-21T05:02:02;15.50;98.00
4505;DHT22;2265;48.794;9.520;2022-08-21T05:04:33;15.60;98.00
4505;DHT22;2265;48.794;9.520;2022-08-21T05:07:04;15.60;98.00
4505;DHT22;2265;48.794;9.520;2022-08-21T05:09:33;15.60;98.00
4505;DHT22;2265;48.794;9.520;2022-08-21T05:12:01;15.40;98.00
4505;DHT22;2265;48.794;9.520;2022-08-21T05:14:29;15.20;98.00
4505;DHT22;2265;48.794;9.520;2022-08-21T05:16:56;15.10;98.00
4505;DHT22;2265;48.794;9.520;2022-08-21T05:19:24;15.20;98.00
4505;DHT22;2265;48.794;9.520;2022-08-21T05:21:53;15.20;98.00
4505;DHT22;2265;48.794;9.520;2022-08-21T05:24:20;15.30;98.00
4505;DHT22;2265;48.794;9.520;2022-08-21T05:26:47;15.40;98.00
4505;DHT22;2265;48.794;9.520;2022-08-21T05:29:16;15.40;98.00
4505;DHT22;2265;48.794;9.520;2022-08-21T05:31:44;15.50;98.00
4505;DHT22;2265;48.794;9.520;2022-08-21T05:34:17;15.50;98.00
4505;DHT22;2265;48.794;9.520;2022-08-21T05:36:48;15.40;98.00
4505;DHT22;2265;48.794;9.520;2022-08-21T05:39:16;15.40;98.00
4505;DHT22;2265;48.794;9.520;2022-08-21T05:41:44;15.30;98.00
4505;DHT22;2265;48.794;9.520;2022-08-21T05:44:11;15.40;98.00
4505;DHT22;2265;48.794;9.520;2022-08-21T05:46:38;15.60;98.00
4505;DHT22;2265;48.794;9.520;2022-08-21T05:49:05;15.70;98.00
4505;DHT22;2265;48.794;9.520;2022-08-21T05:51:33;15.60;98.00
4505;DHT22;2265;48.794;9.520;2022-08-21T05:54:00;15.40;98.00
4505;DHT22;2265;48.794;9.520;2022-08-21T05:56:28;15.40;98.00
4505;DHT22;2265;48.794;9.520;2022-08-21T05:58:56;15.50;98.00
4505;DHT22;2265;48.794;9.520;2022-08-21T06:01:23;15.50;98.00
4505;DHT22;2265;48.794;9.520;2022-08-21T06:03:51;15.40;98.00
4505;DHT22;2265;48.794;9.520;2022-08-21T06:06:18;15.20;98.00
4505;DHT22;2265;48.794;9.520;2022-08-21T06:08:47;15.10;98.00
4505;DHT22;2265;48.794;9.520;2022-08-21T06:11:14;15.10;98.00
4505;DHT22;2265;48.794;9.520;2022-08-21T06:13:43;15.20;98.00
4505;DHT22;2265;48.794;9.520;2022-08-21T06:16:15;15.40;98.00
4505;DHT22;2265;48.794;9.520;2022-08-21T06:18:45;15.60;98.00
4505;DHT22;2265;48.794;9.520;2022-08-21T06:21:12;15.80;98.00
4505;DHT22;2265;48.794;9.520;2022-08-21T06:23:40;15.90;98.00
4505;DHT22;2265;48.794;9.520;2022-08-21T06:26:08;15.80;98.00
4505;DHT22;2265;48.794;9.520;2022-08-21T06:28:36;15.80;98.00
